createdAt,value
2022-11-24T00:00:44.439Z,8.90
2022-11-24T00:03:51.792Z,8.96
2022-11-24T00:06:53.478Z,8.95
2022-11-24T00:09:55.039Z,8.96
2022-11-24T00:12:56.622Z,9.03
2022-11-24T00:16:24.822Z,9.13
2022-11-24T00:19:26.463Z,9.13
2022-11-24T00:22:27.993Z,9.02
2022-11-24T00:25:29.565Z,9.23
2022-11-24T00:28:32.795Z,9.22
2022-11-24T00:31:40.631Z,9.22
2022-11-24T00:34:42.329Z,9.01
2022-11-24T00:37:43.985Z,8.92
2022-11-24T00:40:45.553Z,9.03
2022-11-24T00:43:47.168Z,8.91
2022-11-24T00:46:48.946Z,8.88
2022-11-24T00:49:50.683Z,8.66
2022-11-24T00:52:52.320Z,8.69
2022-11-24T00:55:54.836Z,8.92
2022-11-24T00:58:56.756Z,8.88
2022-11-24T01:01:58.446Z,8.88
2022-11-24T01:05:00.114Z,8.76
2022-11-24T01:08:01.726Z,8.66
2022-11-24T01:11:11.301Z,8.62
2022-11-24T01:14:12.968Z,8.58
2022-11-24T01:17:14.527Z,8.63
2022-11-24T01:20:16.265Z,8.57
2022-11-24T01:23:17.863Z,8.56
2022-11-24T01:26:21.576Z,8.56
2022-11-24T01:29:23.327Z,8.75
2022-11-24T01:32:24.909Z,8.68
2022-11-24T01:35:26.677Z,8.85
2022-11-24T01:38:28.439Z,8.95
2022-11-24T01:41:30.138Z,8.90
2022-11-24T01:44:32.108Z,8.82
2022-11-24T01:47:40.906Z,8.83
2022-11-24T01:50:43.877Z,8.77
2022-11-24T01:53:51.765Z,8.77
2022-11-24T01:56:56.941Z,8.71
2022-11-24T02:00:06.268Z,8.63
2022-11-24T02:03:20.378Z,8.59
2022-11-24T02:06:33.267Z,8.46
2022-11-24T02:09:42.977Z,8.31
2022-11-24T02:12:47.578Z,8.46
2022-11-24T02:15:49.530Z,8.55
2022-11-24T02:18:51.587Z,8.45
2022-11-24T02:21:53.170Z,8.53
2022-11-24T02:25:03.577Z,8.78
2022-11-24T02:28:08.023Z,8.81
2022-11-24T02:31:09.757Z,8.84
2022-11-24T02:34:11.388Z,8.82
2022-11-24T02:37:13.136Z,8.76
2022-11-24T02:40:16.659Z,8.75
2022-11-24T02:43:23.337Z,8.70
2022-11-24T02:46:25.063Z,8.53
2022-11-24T02:49:26.791Z,8.46
2022-11-24T02:52:28.425Z,8.46
2022-11-24T02:55:30.146Z,8.48
2022-11-24T02:58:32.194Z,8.18
2022-11-24T03:01:33.843Z,8.06
2022-11-24T03:04:35.847Z,8.26
2022-11-24T03:07:37.927Z,8.31
2022-11-24T03:10:39.900Z,8.30
2022-11-24T03:13:41.604Z,8.33
2022-11-24T03:16:43.212Z,8.06
2022-11-24T03:19:44.984Z,8.07
2022-11-24T03:22:46.586Z,8.14
2022-11-24T03:25:48.226Z,8.15
2022-11-24T03:28:50.305Z,8.22
2022-11-24T03:31:51.882Z,8.16
2022-11-24T03:34:53.476Z,8.27
2022-11-24T03:37:55.149Z,8.36
2022-11-24T03:40:56.747Z,8.34
2022-11-24T03:43:58.432Z,8.23
2022-11-24T03:47:00.051Z,8.12
2022-11-24T03:50:01.713Z,8.04
2022-11-24T03:53:03.353Z,7.93
2022-11-24T03:56:05.049Z,7.83
2022-11-24T03:59:06.697Z,7.79
2022-11-24T04:02:08.325Z,7.86
2022-11-24T04:05:10.418Z,7.81
2022-11-24T04:08:12.090Z,7.86
2022-11-24T04:11:33.653Z,7.89
2022-11-24T04:14:35.750Z,7.85
2022-11-24T04:17:37.681Z,7.89
2022-11-24T04:20:40.719Z,7.94
2022-11-24T04:23:42.505Z,7.99
2022-11-24T04:26:44.176Z,8.04
2022-11-24T04:29:45.883Z,8.02
2022-11-24T04:32:47.961Z,7.93
2022-11-24T04:35:53.451Z,7.77
2022-11-24T04:39:24.377Z,7.89
2022-11-24T04:42:16.673Z,7.85
2022-11-24T04:45:18.436Z,7.87
2022-11-24T04:48:20.075Z,7.92
2022-11-24T04:51:21.633Z,7.98
2022-11-24T04:54:23.976Z,7.94
2022-11-24T04:57:26.834Z,8.14
2022-11-24T05:00:28.429Z,8.04
2022-11-24T05:03:30.376Z,8.06
2022-11-24T05:06:33.229Z,8.08
2022-11-24T05:09:59.208Z,8.12
2022-11-24T05:13:02.550Z,8.17
2022-11-24T05:16:04.567Z,7.98
2022-11-24T05:19:06.240Z,7.88
2022-11-24T05:22:07.904Z,7.87
2022-11-24T05:25:09.830Z,7.91
2022-11-24T05:28:11.529Z,7.81
2022-11-24T05:31:13.213Z,7.86
2022-11-24T05:34:15.510Z,7.85
2022-11-24T05:37:17.760Z,7.81
2022-11-24T05:40:19.570Z,7.79
2022-11-24T05:43:21.261Z,7.83
2022-11-24T05:46:22.876Z,7.76
2022-11-24T05:49:24.510Z,7.72
2022-11-24T05:52:26.118Z,7.78
2022-11-24T05:55:27.824Z,7.69
2022-11-24T05:58:29.862Z,7.84
2022-11-24T06:01:31.526Z,7.82
2022-11-24T06:04:33.457Z,7.64
2022-11-24T06:07:35.535Z,7.54
2022-11-24T06:10:37.230Z,7.41
2022-11-24T06:13:41.868Z,7.31
2022-11-24T06:16:43.649Z,7.30
2022-11-24T06:19:47.888Z,7.22
2022-11-24T06:22:49.709Z,7.32
2022-11-24T06:25:51.676Z,7.28
2022-11-24T06:28:53.379Z,7.18
2022-11-24T06:31:55.067Z,7.21
2022-11-24T06:34:56.782Z,7.21
2022-11-24T06:37:58.744Z,7.24
2022-11-24T06:41:06.523Z,7.18
2022-11-24T06:44:08.294Z,7.20
2022-11-24T06:47:09.888Z,7.18
2022-11-24T06:50:11.824Z,7.25
2022-11-24T06:53:13.417Z,7.30
2022-11-24T06:56:19.239Z,7.31
2022-11-24T06:59:20.947Z,7.22
2022-11-24T07:02:22.926Z,7.18
2022-11-24T07:05:24.513Z,7.14
2022-11-24T07:08:28.898Z,7.17
2022-11-24T07:11:30.712Z,7.18
2022-11-24T07:14:33.258Z,7.21
2022-11-24T07:17:40.097Z,7.18
2022-11-24T07:20:41.714Z,7.20
2022-11-24T07:23:44.332Z,7.32
2022-11-24T07:26:45.927Z,7.35
2022-11-24T07:29:47.700Z,7.35
2022-11-24T07:32:49.502Z,7.34
2022-11-24T07:35:54.203Z,7.22
2022-11-24T07:38:55.833Z,7.29
2022-11-24T07:41:59.769Z,7.15
2022-11-24T07:45:01.489Z,7.30
2022-11-24T07:48:03.085Z,7.13
2022-11-24T07:51:05.814Z,7.09
2022-11-24T07:54:07.481Z,6.90
2022-11-24T07:57:09.135Z,7.06
2022-11-24T08:00:11.607Z,7.09
2022-11-24T08:03:13.355Z,7.15
2022-11-24T08:06:26.149Z,7.15
2022-11-24T08:09:29.204Z,7.07
2022-11-24T08:12:31.415Z,7.11
2022-11-24T08:15:33.054Z,7.13
2022-11-24T08:18:36.077Z,7.16
2022-11-24T08:21:38.457Z,7.20
2022-11-24T08:24:46.170Z,7.19
2022-11-24T08:27:47.828Z,7.18
2022-11-24T08:30:49.472Z,7.34
2022-11-24T08:33:51.120Z,7.36
2022-11-24T08:36:52.842Z,7.49
2022-11-24T08:39:54.685Z,7.50
2022-11-24T08:43:00.681Z,7.59
2022-11-24T08:46:17.093Z,7.54
2022-11-24T08:49:19.383Z,7.68
2022-11-24T08:52:21.023Z,7.75
2022-11-24T08:55:22.733Z,7.76
2022-11-24T08:58:24.474Z,7.65
2022-11-24T09:01:27.241Z,7.93
2022-11-24T09:04:29.493Z,7.95
2022-11-24T09:07:31.225Z,8.10
2022-11-24T09:10:33.170Z,8.06
2022-11-24T09:13:35.731Z,8.21
2022-11-24T09:16:37.837Z,8.18
2022-11-24T09:19:39.565Z,8.30
2022-11-24T09:22:43.056Z,8.28
2022-11-24T09:25:44.761Z,8.34
2022-11-24T09:28:48.208Z,8.32
2022-11-24T09:31:49.836Z,8.25
2022-11-24T09:34:51.634Z,8.39
2022-11-24T09:37:53.278Z,8.38
2022-11-24T09:40:55.983Z,8.42
2022-11-24T09:44:07.544Z,8.43
2022-11-24T09:47:27.476Z,8.55
2022-11-24T09:50:34.523Z,8.66
2022-11-24T09:53:42.143Z,8.61
2022-11-24T09:56:47.099Z,8.79
2022-11-24T09:59:48.883Z,8.91
2022-11-24T10:02:50.922Z,8.88
2022-11-24T10:05:53.753Z,8.97
2022-11-24T10:09:20.944Z,9.00
2022-11-24T10:12:56.349Z,9.00
2022-11-24T10:16:13.421Z,9.01
2022-11-24T10:19:44.709Z,9.14
2022-11-24T10:22:52.376Z,9.19
2022-11-24T10:25:59.935Z,9.17
2022-11-24T10:29:10.799Z,9.25
2022-11-24T10:32:18.173Z,9.20
2022-11-24T10:35:22.667Z,9.23
2022-11-24T10:39:16.328Z,9.30
2022-11-24T10:42:37.730Z,9.36
2022-11-24T10:45:40.181Z,9.27
2022-11-24T10:48:48.627Z,9.53
2022-11-24T10:52:08.279Z,9.79
2022-11-24T10:55:11.608Z,9.65
2022-11-24T10:58:17.819Z,9.68
2022-11-24T11:01:27.814Z,9.80
2022-11-24T11:04:35.864Z,10.02
2022-11-24T11:07:37.818Z,10.17
2022-11-24T11:10:40.611Z,10.35
2022-11-24T11:14:00.057Z,10.04
2022-11-24T11:17:30.974Z,10.00
2022-11-24T11:20:35.943Z,10.05
2022-11-24T11:23:40.241Z,10.70
2022-11-24T11:26:42.518Z,10.60
2022-11-24T11:36:47.862Z,10.27
2022-11-24T11:39:52.535Z,10.52
2022-11-24T11:43:27.519Z,10.43
2022-11-24T11:46:32.731Z,10.92
2022-11-24T11:49:39.419Z,11.14
2022-11-24T11:52:53.446Z,11.01
2022-11-24T11:56:26.802Z,11.25
2022-11-24T11:59:59.879Z,11.28
2022-11-24T12:03:40.951Z,11.54
2022-11-24T12:07:28.622Z,11.41
2022-11-24T12:11:19.606Z,11.13
2022-11-24T12:14:46.944Z,11.01
2022-11-24T12:18:13.556Z,10.79
2022-11-24T12:22:32.293Z,10.72
2022-11-24T12:25:46.885Z,10.53
2022-11-24T12:29:26.529Z,10.59
2022-11-24T12:32:57.327Z,10.54
2022-11-24T12:36:10.377Z,10.62
2022-11-24T12:39:39.730Z,10.59
2022-11-24T12:42:52.819Z,10.54
2022-11-24T12:46:02.125Z,10.57
2022-11-24T12:49:25.685Z,10.54
2022-11-24T12:52:57.225Z,10.48
2022-11-24T12:56:17.674Z,10.74
2022-11-24T12:59:22.891Z,11.06
2022-11-24T13:02:32.857Z,11.72
2022-11-24T13:05:58.898Z,11.78
2022-11-24T13:09:09.476Z,11.95
2022-11-24T13:12:14.476Z,11.83
2022-11-24T13:15:43.593Z,12.30
2022-11-24T13:18:58.325Z,12.46
2022-11-24T13:22:09.850Z,12.42
2022-11-24T13:25:20.211Z,12.31
2022-11-24T13:29:08.867Z,12.50
2022-11-24T13:32:14.945Z,12.36
2022-11-24T13:35:17.277Z,12.20
2022-11-24T13:38:43.824Z,12.44
2022-11-24T13:41:48.630Z,12.30
2022-11-24T13:45:03.630Z,12.17
2022-11-24T13:48:22.574Z,12.66
2022-11-24T13:51:28.900Z,12.37
2022-11-24T13:54:30.906Z,12.64
2022-11-24T13:57:38.900Z,12.40
2022-11-24T14:01:02.672Z,12.42
2022-11-24T14:04:33.997Z,12.34
2022-11-24T14:07:35.798Z,12.45
2022-11-24T14:10:41.279Z,12.17
2022-11-24T14:13:44.944Z,11.14
2022-11-24T14:16:46.825Z,10.49
2022-11-24T14:19:54.103Z,10.25
2022-11-24T14:22:55.780Z,9.91
2022-11-24T14:25:58.289Z,9.78
2022-11-24T14:29:13.884Z,9.67
2022-11-24T14:32:18.124Z,9.59
2022-11-24T14:35:24.384Z,9.78
2022-11-24T14:38:26.127Z,9.67
2022-11-24T14:41:28.476Z,9.66
2022-11-24T14:44:34.350Z,9.65
2022-11-24T14:47:44.536Z,9.52
2022-11-24T14:50:46.651Z,9.49
2022-11-24T14:53:55.240Z,9.47
2022-11-24T14:56:56.851Z,9.53
2022-11-24T15:00:23.545Z,9.60
2022-11-24T15:03:40.086Z,9.42
2022-11-24T15:06:45.257Z,9.50
2022-11-24T15:09:59.073Z,9.63
2022-11-24T15:13:03.607Z,9.75
2022-11-24T15:16:17.459Z,9.72
2022-11-24T15:19:19.183Z,9.54
2022-11-24T15:22:27.734Z,9.27
2022-11-24T15:25:33.379Z,9.12
2022-11-24T15:28:35.206Z,8.96
2022-11-24T15:31:37.312Z,8.76
2022-11-24T15:34:39.120Z,8.63
2022-11-24T15:37:40.694Z,8.52
2022-11-24T15:40:45.553Z,8.43
2022-11-24T15:43:47.720Z,8.31
2022-11-24T15:46:49.408Z,8.29
2022-11-24T15:49:51.080Z,8.22
2022-11-24T15:52:52.804Z,8.14
2022-11-24T15:55:57.167Z,7.88
2022-11-24T15:58:59.057Z,7.75
2022-11-24T16:02:00.714Z,7.83
2022-11-24T16:05:02.294Z,7.72
2022-11-24T16:08:04.811Z,7.62
2022-11-24T16:11:06.748Z,7.61
2022-11-24T16:14:08.403Z,7.61
2022-11-24T16:17:10.056Z,7.60
2022-11-24T16:20:11.902Z,7.57
2022-11-24T16:23:13.555Z,7.42
2022-11-24T16:26:15.097Z,7.37
2022-11-24T16:29:16.887Z,7.61
2022-11-24T16:32:18.528Z,7.66
2022-11-24T16:35:20.704Z,7.70
2022-11-24T16:38:22.296Z,8.12
2022-11-24T16:41:23.971Z,7.86
2022-11-24T16:44:25.576Z,7.65
2022-11-24T16:47:27.364Z,7.64
2022-11-24T16:50:29.062Z,7.56
2022-11-24T16:53:30.639Z,7.47
2022-11-24T16:56:33.412Z,7.54
2022-11-24T16:59:35.088Z,7.66
2022-11-24T17:02:36.844Z,7.93
2022-11-24T17:05:38.518Z,7.93
2022-11-24T17:08:41.115Z,7.90
2022-11-24T17:11:42.731Z,7.94
2022-11-24T17:14:52.623Z,7.99
2022-11-24T17:21:27.861Z,7.65
2022-11-24T17:24:29.718Z,7.86
2022-11-24T17:27:31.622Z,7.87
2022-11-24T17:30:33.548Z,7.98
2022-11-24T17:33:35.878Z,7.89
2022-11-24T17:36:37.692Z,7.90
2022-11-24T17:39:39.389Z,7.82
2022-11-24T17:42:41.024Z,7.64
2022-11-24T17:45:42.963Z,7.84
2022-11-24T17:48:44.817Z,7.88
2022-11-24T17:51:50.343Z,7.96
2022-11-24T17:54:51.879Z,7.96
2022-11-24T17:57:53.488Z,8.03
2022-11-24T18:00:55.268Z,8.13
2022-11-24T18:03:57.403Z,7.88
2022-11-24T18:06:59.042Z,7.93
2022-11-24T18:10:00.766Z,7.92
2022-11-24T18:13:02.376Z,7.87
2022-11-24T18:16:07.265Z,7.72
2022-11-24T18:19:10.874Z,7.63
2022-11-24T18:22:12.815Z,7.55
2022-11-24T18:25:14.417Z,7.53
2022-11-24T18:28:15.999Z,7.70
2022-11-24T18:31:18.663Z,7.59
2022-11-24T18:34:20.324Z,7.47
2022-11-24T18:37:21.880Z,7.53
2022-11-24T18:40:23.554Z,7.40
2022-11-24T18:43:27.817Z,7.42
2022-11-24T18:46:29.499Z,7.46
2022-11-24T18:49:34.076Z,7.57
2022-11-24T18:52:35.658Z,7.53
2022-11-24T18:55:37.382Z,7.55
2022-11-24T18:58:38.974Z,7.65
2022-11-24T19:01:40.626Z,7.44
2022-11-24T19:04:42.301Z,7.49
2022-11-24T19:07:44.036Z,7.56
2022-11-24T19:10:45.827Z,7.51
2022-11-24T19:13:49.173Z,7.21
2022-11-24T19:16:51.049Z,7.14
2022-11-24T19:19:52.905Z,7.25
2022-11-24T19:22:54.801Z,7.36
2022-11-24T19:26:00.870Z,7.26
2022-11-24T19:29:03.817Z,7.17
2022-11-24T19:32:05.486Z,7.13
2022-11-24T19:35:07.542Z,7.14
2022-11-24T19:38:13.574Z,7.55
2022-11-24T19:41:19.290Z,7.40
2022-11-24T19:44:21.008Z,7.00
2022-11-24T19:47:22.661Z,6.85
2022-11-24T19:50:24.274Z,7.06
2022-11-24T19:53:25.934Z,7.19
2022-11-24T19:56:29.762Z,7.33
2022-11-24T19:59:31.530Z,7.26
2022-11-24T20:02:33.139Z,7.32
2022-11-24T20:05:34.820Z,7.40
2022-11-24T20:08:37.730Z,7.27
2022-11-24T20:11:40.398Z,7.35
2022-11-24T20:14:41.990Z,7.28
2022-11-24T20:17:43.595Z,7.16
2022-11-24T20:20:45.225Z,7.04
2022-11-24T20:23:53.547Z,7.10
2022-11-24T20:26:58.287Z,7.13
2022-11-24T20:29:59.882Z,7.33
2022-11-24T20:33:01.443Z,6.90
2022-11-24T20:36:14.365Z,6.82
2022-11-24T20:39:22.483Z,7.05
2022-11-24T20:42:24.024Z,6.89
2022-11-24T20:45:25.894Z,6.90
2022-11-24T20:48:27.673Z,6.90
2022-11-24T20:51:35.058Z,6.92
2022-11-24T20:54:36.995Z,6.67
2022-11-24T20:57:38.817Z,6.76
2022-11-24T21:00:40.543Z,6.76
2022-11-24T21:03:43.498Z,6.80
2022-11-24T21:06:45.441Z,6.80
2022-11-24T21:09:47.060Z,6.73
2022-11-24T21:12:48.583Z,6.75
2022-11-24T21:15:50.881Z,6.82
2022-11-24T21:18:55.805Z,6.66
2022-11-24T21:21:57.440Z,6.63
2022-11-24T21:24:59.073Z,6.47
2022-11-24T21:28:00.661Z,6.43
2022-11-24T21:31:07.379Z,6.44
2022-11-24T21:34:09.455Z,6.47
2022-11-24T21:37:11.044Z,6.56
2022-11-24T21:40:14.951Z,6.57
2022-11-24T21:43:16.518Z,6.69
2022-11-24T21:46:18.343Z,6.58
2022-11-24T21:49:20.060Z,6.48
2022-11-24T21:52:22.391Z,6.57
2022-11-24T21:55:24.033Z,6.58
2022-11-24T21:58:26.618Z,6.44
2022-11-24T22:01:29.448Z,6.59
2022-11-24T22:04:31.099Z,6.68
2022-11-24T22:07:33.175Z,6.88
2022-11-24T22:10:34.788Z,7.03
2022-11-24T22:13:36.528Z,6.70
2022-11-24T22:16:39.054Z,6.93
2022-11-24T22:19:41.303Z,7.02
2022-11-24T22:22:42.958Z,6.70
2022-11-24T22:25:44.698Z,6.53
2022-11-24T22:28:47.277Z,6.48
2022-11-24T22:31:49.138Z,6.15
2022-11-24T22:34:50.860Z,5.93
2022-11-24T22:37:52.392Z,5.86
2022-11-24T22:40:54.075Z,5.94
2022-11-24T22:43:55.741Z,6.13
2022-11-24T22:46:59.888Z,6.21
2022-11-24T22:50:01.499Z,6.29
2022-11-24T22:53:03.310Z,6.22
2022-11-24T22:56:07.562Z,6.42
2022-11-24T22:59:09.117Z,6.35
2022-11-24T23:02:10.718Z,6.27
2022-11-24T23:05:14.719Z,6.32
2022-11-24T23:08:19.671Z,6.22
2022-11-24T23:11:30.691Z,5.85
2022-11-24T23:14:33.494Z,5.46
2022-11-24T23:17:35.227Z,5.18
2022-11-24T23:20:36.764Z,5.13
2022-11-24T23:23:38.715Z,5.24
2022-11-24T23:26:41.353Z,5.35
2022-11-24T23:29:42.963Z,5.44
2022-11-24T23:32:44.553Z,5.81
2022-11-24T23:35:46.158Z,5.97
2022-11-24T23:38:48.594Z,6.24
2022-11-24T23:41:50.195Z,6.53
2022-11-24T23:44:51.849Z,6.41
2022-11-24T23:47:53.936Z,6.21
2022-11-24T23:50:55.569Z,5.83
2022-11-24T23:53:57.793Z,6.26
2022-11-24T23:56:59.871Z,6.68
